Hudson, KS (67545)

12:38 AM CST on February 26, 2017 (GMT -0600)
Stafford | | Change Station

Elev 1880 ft 37.96 °N, 98.61 °W | Updated 38 seconds ago

Overcast
Overcast
33.0 °F
Feels Like 33 °F
N
0.0
Wind Variable Wind from SSW

Today
High -- | Low -- °F
--% Chance of Precip.
Yesterday
High -- | Low -- °F
Precip. -- in
Pressure 29.97 in
Visibility 10.0 miles
Clouds Mostly Cloudy 11000 ft
Windchill 33 °F
Dew Point 17 °F
Humidity 53%
Rainfall 0.00 in
Snow Depth Not available.
7:10 AM 6:25 PM
Waning Crescent, 0% visible
METAR KGBD 260556Z AUTO 15008KT 10SM BKN110 M01/M08 A2992 RMK AO2 SLP147 T10111078 10061 21011 400891122 57003 FZRANO
Pressure 29.97 in
Visibility 10.0 miles
Clouds Mostly Cloudy 11000 ft
Windchill 33 °F
Dew Point 17 °F
Humidity 53%
Rainfall 0.00 in
Snow Depth Not available.
7:10 AM 6:25 PM
Waning Crescent, 0% visible
METAR KGBD 260556Z AUTO 15008KT 10SM BKN110 M01/M08 A2992 RMK AO2 SLP147 T10111078 10061 21011 400891122 57003 FZRANO

Get Your Daily Forecast Email!

Thanks for signing up!

Be on the lookout for a verification email in your inbox.

You'll start receiving the daily forecast at 8 AM.

×

10-Day Weather Forecast

Almanac

Astronomy

Feb. 26, 2017 Rise Set
Actual Time
Civil Twilight
Nautical Twilight
Astronomical Twilight
Moon
Length of Visible Light
Length of Day
Tomorrow will be .
, % of the Moon is Illuminated

Today's Extremes

State Highs State Lows

Community

WunderPhotos

Upload Photos

1,962,540 photos uploaded!

WunderBlog® & News

Nearby

Air Quality

  Air Quality AQ Index Pollutant
Not available.

Snow Depth

Station Depth Elevation

Earthquake Activity

City Distance Mag. Time & Date
Minimum magnitude displayed is 2.5.

Coastal Water Temperatures

Place Temperature

Stations

Nearby Weather Stations

Station Location Temp. Windchill Dew Point Humidity Wind Precip. Elev Updated Type
                   

Watches & Warnings

There are currently no watches in effect.